Navy Homeport, Mississippi
Current Conditions -  °F | °C
As of 3:53 PM on Wednesday 22 Oct 2014 (Local Time) from KPQL Reporting Station
Clear Clear  
Wind Chill: 79°   Ceiling: Unl
Heat Index: 79°   Visibility: 10mi
Dew Point: 49°   Wind: 9mph
Humidity: 35%   Direction: 350°N
Pressure: 30.02"   Gusts: NA
Location:  30.3627°N, 88.5463°W
Report Text: KPQL 222053Z 35008KT 10SM CLR 26/09 A3002 RMK AO2 SLP165 T02610094 56017
Loading
Personal Weather Stations






























Interactive Weather Map
Tropical Storm Tracking
New forecast layout! Learn more

10-Day Weather Forecast

Advertisements
Track Severe Weather on mobile